sensor_id;sensor_type;location;lat;lon;timestamp;P1;durP1;ratioP1;P2;durP2;ratioP2
84933;SDS011;75195;56.858;41.422;2024-03-02T00:01:18;40.22;;;18.45;;
84933;SDS011;75195;56.858;41.422;2024-03-02T00:03:44;38.03;;;18.92;;
84933;SDS011;75195;56.858;41.422;2024-03-02T00:06:11;37.35;;;19.35;;
84933;SDS011;75195;56.858;41.422;2024-03-02T00:08:37;36.80;;;17.73;;
84933;SDS011;75195;56.858;41.422;2024-03-02T00:11:04;41.38;;;19.60;;
84933;SDS011;75195;56.858;41.422;2024-03-02T00:13:30;42.70;;;19.50;;
84933;SDS011;75195;56.858;41.422;2024-03-02T00:15:58;46.13;;;18.23;;
84933;SDS011;75195;56.858;41.422;2024-03-02T00:18:31;40.35;;;18.05;;
84933;SDS011;75195;56.858;41.422;2024-03-02T00:20:59;38.80;;;18.75;;
84933;SDS011;75195;56.858;41.422;2024-03-02T00:23:31;34.78;;;18.30;;
84933;SDS011;75195;56.858;41.422;2024-03-02T00:25:58;36.67;;;18.10;;
84933;SDS011;75195;56.858;41.422;2024-03-02T00:28:32;36.30;;;17.23;;
84933;SDS011;75195;56.858;41.422;2024-03-02T00:33:41;41.00;;;20.08;;
84933;SDS011;75195;56.858;41.422;2024-03-02T00:36:09;42.30;;;19.15;;
84933;SDS011;75195;56.858;41.422;2024-03-02T00:38:44;43.85;;;20.10;;
84933;SDS011;75195;56.858;41.422;2024-03-02T00:46:29;43.30;;;20.25;;
84933;SDS011;75195;56.858;41.422;2024-03-02T00:48:59;45.92;;;19.60;;
84933;SDS011;75195;56.858;41.422;2024-03-02T00:51:28;49.08;;;21.17;;
84933;SDS011;75195;56.858;41.422;2024-03-02T00:53:58;45.78;;;20.65;;
84933;SDS011;75195;56.858;41.422;2024-03-02T00:56:25;46.63;;;20.10;;
84933;SDS011;75195;56.858;41.422;2024-03-02T00:58:52;50.00;;;21.77;;
84933;SDS011;75195;56.858;41.422;2024-03-02T01:01:19;45.58;;;19.63;;
84933;SDS011;75195;56.858;41.422;2024-03-02T01:03:46;45.22;;;20.40;;
84933;SDS011;75195;56.858;41.422;2024-03-02T01:06:12;48.97;;;20.38;;
84933;SDS011;75195;56.858;41.422;2024-03-02T01:08:39;44.25;;;20.30;;
84933;SDS011;75195;56.858;41.422;2024-03-02T01:11:06;42.97;;;19.48;;
84933;SDS011;75195;56.858;41.422;2024-03-02T01:13:32;44.60;;;19.80;;
84933;SDS011;75195;56.858;41.422;2024-03-02T01:15:59;44.75;;;21.00;;
84933;SDS011;75195;56.858;41.422;2024-03-02T01:18:27;48.38;;;19.77;;
84933;SDS011;75195;56.858;41.422;2024-03-02T01:20:53;47.40;;;21.17;;
84933;SDS011;75195;56.858;41.422;2024-03-02T01:23:22;44.08;;;20.30;;
84933;SDS011;75195;56.858;41.422;2024-03-02T01:25:50;41.40;;;19.15;;
84933;SDS011;75195;56.858;41.422;2024-03-02T01:28:17;46.42;;;20.20;;
84933;SDS011;75195;56.858;41.422;2024-03-02T01:30:44;37.05;;;18.23;;
84933;SDS011;75195;56.858;41.422;2024-03-02T01:33:11;38.50;;;18.95;;
84933;SDS011;75195;56.858;41.422;2024-03-02T01:35:37;45.33;;;19.88;;
84933;SDS011;75195;56.858;41.422;2024-03-02T01:38:04;42.40;;;19.95;;
84933;SDS011;75195;56.858;41.422;2024-03-02T01:40:34;42.33;;;19.77;;
84933;SDS011;75195;56.858;41.422;2024-03-02T01:43:00;46.40;;;19.83;;
84933;SDS011;75195;56.858;41.422;2024-03-02T01:45:28;41.78;;;19.13;;
84933;SDS011;75195;56.858;41.422;2024-03-02T01:47:55;44.13;;;19.45;;
84933;SDS011;75195;56.858;41.422;2024-03-02T01:50:27;41.70;;;18.38;;
84933;SDS011;75195;56.858;41.422;2024-03-02T01:52:55;32.60;;;15.80;;
84933;SDS011;75195;56.858;41.422;2024-03-02T01:55:22;37.90;;;17.75;;
84933;SDS011;75195;56.858;41.422;2024-03-02T01:57:49;35.95;;;17.10;;
84933;SDS011;75195;56.858;41.422;2024-03-02T02:00:17;36.83;;;18.10;;
84933;SDS011;75195;56.858;41.422;2024-03-02T02:02:47;39.35;;;17.92;;
84933;SDS011;75195;56.858;41.422;2024-03-02T02:05:14;35.17;;;17.05;;
84933;SDS011;75195;56.858;41.422;2024-03-02T02:07:41;38.65;;;17.48;;
84933;SDS011;75195;56.858;41.422;2024-03-02T02:10:09;36.10;;;16.10;;
84933;SDS011;75195;56.858;41.422;2024-03-02T02:12:36;33.97;;;16.02;;
84933;SDS011;75195;56.858;41.422;2024-03-02T02:15:04;36.25;;;17.60;;
84933;SDS011;75195;56.858;41.422;2024-03-02T02:17:47;32.50;;;17.02;;
84933;SDS011;75195;56.858;41.422;2024-03-02T02:20:14;33.70;;;15.88;;
84933;SDS011;75195;56.858;41.422;2024-03-02T02:22:40;37.28;;;16.92;;
84933;SDS011;75195;56.858;41.422;2024-03-02T02:25:06;42.13;;;18.42;;
84933;SDS011;75195;56.858;41.422;2024-03-02T02:27:33;40.88;;;18.27;;
84933;SDS011;75195;56.858;41.422;2024-03-02T02:29:59;38.70;;;16.85;;
84933;SDS011;75195;56.858;41.422;2024-03-02T02:32:28;30.67;;;15.35;;
84933;SDS011;75195;56.858;41.422;2024-03-02T02:34:54;37.42;;;16.98;;
84933;SDS011;75195;56.858;41.422;2024-03-02T02:37:21;39.83;;;17.38;;
84933;SDS011;75195;56.858;41.422;2024-03-02T02:39:48;40.63;;;17.30;;
84933;SDS011;75195;56.858;41.422;2024-03-02T02:42:14;36.22;;;17.25;;
84933;SDS011;75195;56.858;41.422;2024-03-02T02:44:40;37.38;;;17.00;;
84933;SDS011;75195;56.858;41.422;2024-03-02T02:47:07;35.78;;;16.83;;
84933;SDS011;75195;56.858;41.422;2024-03-02T02:49:33;34.60;;;17.15;;
84933;SDS011;75195;56.858;41.422;2024-03-02T02:51:59;37.95;;;17.25;;
84933;SDS011;75195;56.858;41.422;2024-03-02T02:54:26;36.90;;;17.17;;
84933;SDS011;75195;56.858;41.422;2024-03-02T02:56:52;38.40;;;17.25;;
84933;SDS011;75195;56.858;41.422;2024-03-02T02:59:18;36.70;;;17.17;;
84933;SDS011;75195;56.858;41.422;2024-03-02T03:01:45;34.75;;;16.73;;
84933;SDS011;75195;56.858;41.422;2024-03-02T03:04:12;36.25;;;16.38;;
84933;SDS011;75195;56.858;41.422;2024-03-02T03:06:38;38.25;;;15.60;;
84933;SDS011;75195;56.858;41.422;2024-03-02T03:09:05;38.35;;;17.42;;
84933;SDS011;75195;56.858;41.422;2024-03-02T03:11:31;36.13;;;15.30;;
84933;SDS011;75195;56.858;41.422;2024-03-02T03:13:57;36.25;;;16.33;;
84933;SDS011;75195;56.858;41.422;2024-03-02T03:16:26;35.85;;;15.73;;
84933;SDS011;75195;56.858;41.422;2024-03-02T03:18:52;35.28;;;16.83;;
84933;SDS011;75195;56.858;41.422;2024-03-02T03:21:19;39.72;;;16.90;;
84933;SDS011;75195;56.858;41.422;2024-03-02T03:23:45;33.85;;;15.30;;
84933;SDS011;75195;56.858;41.422;2024-03-02T03:26:12;38.30;;;18.48;;
84933;SDS011;75195;56.858;41.422;2024-03-02T03:28:38;42.03;;;17.83;;
84933;SDS011;75195;56.858;41.422;2024-03-02T03:31:04;39.22;;;16.08;;
84933;SDS011;75195;56.858;41.422;2024-03-02T03:33:31;34.55;;;16.27;;
84933;SDS011;75195;56.858;41.422;2024-03-02T03:35:57;36.20;;;17.40;;
84933;SDS011;75195;56.858;41.422;2024-03-02T03:38:24;31.92;;;15.63;;
84933;SDS011;75195;56.858;41.422;2024-03-02T03:40:50;34.80;;;16.27;;
84933;SDS011;75195;56.858;41.422;2024-03-02T03:43:17;31.65;;;15.32;;
84933;SDS011;75195;56.858;41.422;2024-03-02T03:45:43;28.42;;;13.80;;
84933;SDS011;75195;56.858;41.422;2024-03-02T03:48:12;31.77;;;14.65;;
84933;SDS011;75195;56.858;41.422;2024-03-02T03:50:38;34.22;;;15.95;;
84933;SDS011;75195;56.858;41.422;2024-03-02T03:53:05;30.23;;;15.05;;
84933;SDS011;75195;56.858;41.422;2024-03-02T03:55:31;35.40;;;16.58;;
84933;SDS011;75195;56.858;41.422;2024-03-02T03:57:58;31.73;;;15.48;;
84933;SDS011;75195;56.858;41.422;2024-03-02T04:00:24;35.03;;;15.63;;
84933;SDS011;75195;56.858;41.422;2024-03-02T04:02:51;30.35;;;13.75;;
84933;SDS011;75195;56.858;41.422;2024-03-02T04:05:17;32.42;;;15.43;;
84933;SDS011;75195;56.858;41.422;2024-03-02T04:07:44;29.60;;;13.55;;
84933;SDS011;75195;56.858;41.422;2024-03-02T04:10:10;30.33;;;14.02;;
84933;SDS011;75195;56.858;41.422;2024-03-02T04:12:38;31.15;;;13.55;;
84933;SDS011;75195;56.858;41.422;2024-03-02T04:15:05;30.10;;;15.15;;
84933;SDS011;75195;56.858;41.422;2024-03-02T04:17:32;29.17;;;15.45;;
84933;SDS011;75195;56.858;41.422;2024-03-02T04:19:59;29.90;;;13.85;;
84933;SDS011;75195;56.858;41.422;2024-03-02T04:22:27;27.08;;;11.95;;
84933;SDS011;75195;56.858;41.422;2024-03-02T04:24:53;27.17;;;12.25;;
84933;SDS011;75195;56.858;41.422;2024-03-02T04:27:20;22.45;;;11.20;;
84933;SDS011;75195;56.858;41.422;2024-03-02T04:29:46;22.65;;;11.55;;
84933;SDS011;75195;56.858;41.422;2024-03-02T04:32:13;24.83;;;12.65;;
84933;SDS011;75195;56.858;41.422;2024-03-02T04:34:39;32.17;;;13.52;;
84933;SDS011;75195;56.858;41.422;2024-03-02T04:37:05;28.25;;;13.35;;
84933;SDS011;75195;56.858;41.422;2024-03-02T04:39:34;28.73;;;13.50;;
84933;SDS011;75195;56.858;41.422;2024-03-02T04:42:01;31.20;;;13.73;;
84933;SDS011;75195;56.858;41.422;2024-03-02T04:44:28;24.15;;;12.70;;
84933;SDS011;75195;56.858;41.422;2024-03-02T04:46:55;28.60;;;12.57;;
84933;SDS011;75195;56.858;41.422;2024-03-02T04:49:21;23.98;;;12.32;;
84933;SDS011;75195;56.858;41.422;2024-03-02T04:51:48;28.77;;;14.07;;
84933;SDS011;75195;56.858;41.422;2024-03-02T04:54:14;27.45;;;12.85;;
84933;SDS011;75195;56.858;41.422;2024-03-02T04:56:41;21.58;;;10.65;;
84933;SDS011;75195;56.858;41.422;2024-03-02T04:59:10;20.88;;;10.43;;
84933;SDS011;75195;56.858;41.422;2024-03-02T05:01:37;15.57;;;8.38;;
84933;SDS011;75195;56.858;41.422;2024-03-02T05:04:03;16.33;;;7.82;;
84933;SDS011;75195;56.858;41.422;2024-03-02T05:06:29;15.25;;;9.02;;
84933;SDS011;75195;56.858;41.422;2024-03-02T05:08:56;14.48;;;7.45;;
84933;SDS011;75195;56.858;41.422;2024-03-02T05:11:23;20.85;;;8.77;;
84933;SDS011;75195;56.858;41.422;2024-03-02T05:14:15;16.90;;;8.77;;
84933;SDS011;75195;56.858;41.422;2024-03-02T05:16:42;15.18;;;7.80;;
84933;SDS011;75195;56.858;41.422;2024-03-02T05:19:08;16.95;;;8.55;;
84933;SDS011;75195;56.858;41.422;2024-03-02T05:21:35;14.57;;;7.90;;
84933;SDS011;75195;56.858;41.422;2024-03-02T05:24:01;15.07;;;8.50;;
84933;SDS011;75195;56.858;41.422;2024-03-02T05:26:28;16.02;;;8.90;;
84933;SDS011;75195;56.858;41.422;2024-03-02T05:28:54;18.20;;;9.82;;
84933;SDS011;75195;56.858;41.422;2024-03-02T05:31:20;15.43;;;9.25;;
84933;SDS011;75195;56.858;41.422;2024-03-02T05:33:47;20.33;;;10.95;;
84933;SDS011;75195;56.858;41.422;2024-03-02T05:36:13;22.30;;;10.60;;
84933;SDS011;75195;56.858;41.422;2024-03-02T05:38:40;32.80;;;13.27;;
84933;SDS011;75195;56.858;41.422;2024-03-02T05:41:06;23.60;;;10.48;;
84933;SDS011;75195;56.858;41.422;2024-03-02T05:43:32;23.88;;;11.65;;
84933;SDS011;75195;56.858;41.422;2024-03-02T05:45:59;18.50;;;9.27;;
84933;SDS011;75195;56.858;41.422;2024-03-02T05:48:25;18.00;;;9.45;;
84933;SDS011;75195;56.858;41.422;2024-03-02T05:50:52;22.40;;;9.20;;
84933;SDS011;75195;56.858;41.422;2024-03-02T05:53:18;13.88;;;7.47;;
84933;SDS011;75195;56.858;41.422;2024-03-02T05:55:44;18.90;;;9.68;;
84933;SDS011;75195;56.858;41.422;2024-03-02T05:58:11;19.77;;;10.02;;
84933;SDS011;75195;56.858;41.422;2024-03-02T06:00:51;20.73;;;11.75;;
84933;SDS011;75195;56.858;41.422;2024-03-02T06:03:18;23.88;;;12.38;;
84933;SDS011;75195;56.858;41.422;2024-03-02T06:05:44;23.05;;;11.80;;
84933;SDS011;75195;56.858;41.422;2024-03-02T06:08:11;19.73;;;10.38;;
84933;SDS011;75195;56.858;41.422;2024-03-02T06:10:37;18.27;;;9.45;;
84933;SDS011;75195;56.858;41.422;2024-03-02T06:13:04;16.20;;;8.50;;
84933;SDS011;75195;56.858;41.422;2024-03-02T06:15:30;14.40;;;7.38;;
84933;SDS011;75195;56.858;41.422;2024-03-02T06:17:56;13.05;;;7.60;;
84933;SDS011;75195;56.858;41.422;2024-03-02T06:20:23;21.38;;;9.55;;
84933;SDS011;75195;56.858;41.422;2024-03-02T06:22:49;14.00;;;8.02;;
84933;SDS011;75195;56.858;41.422;2024-03-02T06:25:15;13.40;;;6.80;;
84933;SDS011;75195;56.858;41.422;2024-03-02T06:27:42;10.80;;;6.15;;
84933;SDS011;75195;56.858;41.422;2024-03-02T06:30:08;11.75;;;6.53;;
84933;SDS011;75195;56.858;41.422;2024-03-02T06:32:35;9.93;;;6.35;;
84933;SDS011;75195;56.858;41.422;2024-03-02T06:35:02;13.63;;;7.97;;
84933;SDS011;75195;56.858;41.422;2024-03-02T06:37:29;10.65;;;6.85;;
84933;SDS011;75195;56.858;41.422;2024-03-02T06:39:56;11.15;;;6.18;;
84933;SDS011;75195;56.858;41.422;2024-03-02T06:42:23;9.63;;;6.00;;
84933;SDS011;75195;56.858;41.422;2024-03-02T06:44:50;12.50;;;6.45;;
84933;SDS011;75195;56.858;41.422;2024-03-02T06:47:16;10.15;;;5.28;;
84933;SDS011;75195;56.858;41.422;2024-03-02T06:49:43;8.45;;;5.13;;
84933;SDS011;75195;56.858;41.422;2024-03-02T06:52:10;9.77;;;6.03;;
84933;SDS011;75195;56.858;41.422;2024-03-02T06:54:36;9.02;;;5.25;;
84933;SDS011;75195;56.858;41.422;2024-03-02T06:57:02;9.65;;;5.43;;
84933;SDS011;75195;56.858;41.422;2024-03-02T06:59:29;11.77;;;6.63;;
84933;SDS011;75195;56.858;41.422;2024-03-02T07:01:56;7.63;;;4.90;;
84933;SDS011;75195;56.858;41.422;2024-03-02T07:04:22;10.20;;;5.55;;
84933;SDS011;75195;56.858;41.422;2024-03-02T07:06:49;10.27;;;5.95;;
84933;SDS011;75195;56.858;41.422;2024-03-02T07:09:15;9.70;;;5.78;;
84933;SDS011;75195;56.858;41.422;2024-03-02T07:11:42;11.52;;;5.85;;
84933;SDS011;75195;56.858;41.422;2024-03-02T07:14:08;8.57;;;4.85;;
84933;SDS011;75195;56.858;41.422;2024-03-02T07:16:37;9.52;;;5.47;;
84933;SDS011;75195;56.858;41.422;2024-03-02T07:19:04;9.52;;;5.88;;
84933;SDS011;75195;56.858;41.422;2024-03-02T07:21:31;7.70;;;4.55;;
84933;SDS011;75195;56.858;41.422;2024-03-02T07:23:59;7.95;;;4.40;;
84933;SDS011;75195;56.858;41.422;2024-03-02T07:26:29;7.10;;;4.53;;
84933;SDS011;75195;56.858;41.422;2024-03-02T07:28:57;6.90;;;3.97;;
84933;SDS011;75195;56.858;41.422;2024-03-02T07:31:23;6.00;;;3.70;;
84933;SDS011;75195;56.858;41.422;2024-03-02T07:33:50;7.03;;;4.07;;
84933;SDS011;75195;56.858;41.422;2024-03-02T07:36:16;6.95;;;4.25;;
84933;SDS011;75195;56.858;41.422;2024-03-02T07:38:42;6.28;;;3.90;;
84933;SDS011;75195;56.858;41.422;2024-03-02T07:41:10;5.45;;;3.38;;
84933;SDS011;75195;56.858;41.422;2024-03-02T07:43:37;5.95;;;3.60;;
84933;SDS011;75195;56.858;41.422;2024-03-02T07:46:03;4.97;;;3.15;;
84933;SDS011;75195;56.858;41.422;2024-03-02T07:48:30;6.07;;;4.03;;
84933;SDS011;75195;56.858;41.422;2024-03-02T07:50:56;5.43;;;3.15;;
84933;SDS011;75195;56.858;41.422;2024-03-02T07:53:23;6.18;;;3.92;;
84933;SDS011;75195;56.858;41.422;2024-03-02T07:55:49;6.70;;;4.13;;
84933;SDS011;75195;56.858;41.422;2024-03-02T08:01:15;5.63;;;3.88;;
84933;SDS011;75195;56.858;41.422;2024-03-02T08:03:41;7.18;;;3.97;;
84933;SDS011;75195;56.858;41.422;2024-03-02T08:06:08;5.45;;;2.92;;
84933;SDS011;75195;56.858;41.422;2024-03-02T08:08:35;5.80;;;3.95;;
84933;SDS011;75195;56.858;41.422;2024-03-02T08:11:01;5.85;;;3.55;;
84933;SDS011;75195;56.858;41.422;2024-03-02T08:13:30;5.30;;;3.17;;
84933;SDS011;75195;56.858;41.422;2024-03-02T08:15:56;4.50;;;3.10;;
84933;SDS011;75195;56.858;41.422;2024-03-02T08:18:23;5.55;;;3.85;;
84933;SDS011;75195;56.858;41.422;2024-03-02T08:20:50;4.65;;;3.13;;
84933;SDS011;75195;56.858;41.422;2024-03-02T08:23:16;5.45;;;3.50;;
84933;SDS011;75195;56.858;41.422;2024-03-02T08:25:43;5.97;;;3.25;;
84933;SDS011;75195;56.858;41.422;2024-03-02T08:28:10;6.18;;;3.97;;
84933;SDS011;75195;56.858;41.422;2024-03-02T08:30:37;5.80;;;3.72;;
84933;SDS011;75195;56.858;41.422;2024-03-02T08:33:03;5.25;;;3.50;;
84933;SDS011;75195;56.858;41.422;2024-03-02T08:35:30;4.88;;;3.08;;
84933;SDS011;75195;56.858;41.422;2024-03-02T08:38:04;7.10;;;3.65;;
84933;SDS011;75195;56.858;41.422;2024-03-02T08:40:30;5.82;;;3.20;;
84933;SDS011;75195;56.858;41.422;2024-03-02T08:42:57;8.07;;;5.00;;
84933;SDS011;75195;56.858;41.422;2024-03-02T08:45:23;6.18;;;3.50;;
84933;SDS011;75195;56.858;41.422;2024-03-02T08:47:50;8.65;;;4.97;;
84933;SDS011;75195;56.858;41.422;2024-03-02T08:50:16;7.25;;;4.70;;
84933;SDS011;75195;56.858;41.422;2024-03-02T08:52:42;7.30;;;3.88;;
84933;SDS011;75195;56.858;41.422;2024-03-02T08:55:09;7.03;;;4.32;;
84933;SDS011;75195;56.858;41.422;2024-03-02T08:57:37;5.47;;;3.10;;
84933;SDS011;75195;56.858;41.422;2024-03-02T09:00:03;6.95;;;4.45;;
84933;SDS011;75195;56.858;41.422;2024-03-02T09:02:31;6.07;;;3.72;;
84933;SDS011;75195;56.858;41.422;2024-03-02T09:04:57;5.25;;;3.60;;
84933;SDS011;75195;56.858;41.422;2024-03-02T09:07:23;7.70;;;6.03;;
84933;SDS011;75195;56.858;41.422;2024-03-02T09:09:50;4.40;;;2.95;;
84933;SDS011;75195;56.858;41.422;2024-03-02T09:12:16;4.22;;;3.55;;
84933;SDS011;75195;56.858;41.422;2024-03-02T09:14:42;5.45;;;3.25;;
84933;SDS011;75195;56.858;41.422;2024-03-02T09:17:09;5.97;;;4.03;;
84933;SDS011;75195;56.858;41.422;2024-03-02T09:19:37;5.82;;;3.05;;
84933;SDS011;75195;56.858;41.422;2024-03-02T09:22:04;3.78;;;2.95;;
84933;SDS011;75195;56.858;41.422;2024-03-02T09:24:31;5.78;;;3.05;;
84933;SDS011;75195;56.858;41.422;2024-03-02T09:26:59;6.72;;;4.40;;
84933;SDS011;75195;56.858;41.422;2024-03-02T09:29:25;3.47;;;2.58;;
84933;SDS011;75195;56.858;41.422;2024-03-02T09:31:52;5.43;;;3.20;;
84933;SDS011;75195;56.858;41.422;2024-03-02T09:34:18;6.80;;;3.80;;
84933;SDS011;75195;56.858;41.422;2024-03-02T09:36:44;5.88;;;3.47;;
84933;SDS011;75195;56.858;41.422;2024-03-02T09:39:11;36.58;;;19.17;;
84933;SDS011;75195;56.858;41.422;2024-03-02T09:41:37;7.75;;;4.45;;
84933;SDS011;75195;56.858;41.422;2024-03-02T09:44:04;5.35;;;2.92;;
84933;SDS011;75195;56.858;41.422;2024-03-02T09:46:32;20.23;;;13.43;;
84933;SDS011;75195;56.858;41.422;2024-03-02T09:48:58;20.73;;;13.48;;
84933;SDS011;75195;56.858;41.422;2024-03-02T09:51:25;3.10;;;2.45;;
84933;SDS011;75195;56.858;41.422;2024-03-02T09:53:51;4.78;;;4.30;;
84933;SDS011;75195;56.858;41.422;2024-03-02T09:56:17;5.68;;;2.60;;
84933;SDS011;75195;56.858;41.422;2024-03-02T09:58:44;5.90;;;4.43;;
84933;SDS011;75195;56.858;41.422;2024-03-02T10:01:11;5.30;;;3.50;;
84933;SDS011;75195;56.858;41.422;2024-03-02T10:03:38;9.68;;;6.28;;
84933;SDS011;75195;56.858;41.422;2024-03-02T10:08:46;7.82;;;4.78;;
84933;SDS011;75195;56.858;41.422;2024-03-02T10:11:27;9.90;;;6.22;;
84933;SDS011;75195;56.858;41.422;2024-03-02T10:16:39;5.78;;;3.10;;
84933;SDS011;75195;56.858;41.422;2024-03-02T10:21:49;6.85;;;3.00;;
84933;SDS011;75195;56.858;41.422;2024-03-02T10:24:17;6.53;;;3.95;;
84933;SDS011;75195;56.858;41.422;2024-03-02T10:26:47;9.93;;;4.97;;
84933;SDS011;75195;56.858;41.422;2024-03-02T10:29:13;21.60;;;11.90;;
84933;SDS011;75195;56.858;41.422;2024-03-02T10:31:42;18.23;;;8.48;;
84933;SDS011;75195;56.858;41.422;2024-03-02T10:34:10;7.43;;;4.10;;
84933;SDS011;75195;56.858;41.422;2024-03-02T10:36:37;4.00;;;2.22;;
84933;SDS011;75195;56.858;41.422;2024-03-02T10:39:07;7.88;;;4.45;;
84933;SDS011;75195;56.858;41.422;2024-03-02T10:41:35;9.95;;;5.60;;
84933;SDS011;75195;56.858;41.422;2024-03-02T10:44:08;13.20;;;6.82;;
84933;SDS011;75195;56.858;41.422;2024-03-02T10:46:36;7.90;;;4.38;;
84933;SDS011;75195;56.858;41.422;2024-03-02T10:49:04;5.20;;;3.42;;
84933;SDS011;75195;56.858;41.422;2024-03-02T10:51:31;4.05;;;3.03;;
84933;SDS011;75195;56.858;41.422;2024-03-02T10:53:59;5.43;;;3.53;;
84933;SDS011;75195;56.858;41.422;2024-03-02T10:56:28;6.68;;;3.55;;
84933;SDS011;75195;56.858;41.422;2024-03-02T10:59:01;5.13;;;3.10;;
84933;SDS011;75195;56.858;41.422;2024-03-02T11:01:30;5.53;;;3.45;;
84933;SDS011;75195;56.858;41.422;2024-03-02T11:03:58;16.40;;;7.72;;
84933;SDS011;75195;56.858;41.422;2024-03-02T11:06:26;9.82;;;5.35;;
84933;SDS011;75195;56.858;41.422;2024-03-02T11:08:55;7.38;;;4.10;;
84933;SDS011;75195;56.858;41.422;2024-03-02T11:11:27;4.93;;;3.70;;
84933;SDS011;75195;56.858;41.422;2024-03-02T11:13:56;5.97;;;3.67;;
84933;SDS011;75195;56.858;41.422;2024-03-02T11:16:35;5.72;;;3.25;;
84933;SDS011;75195;56.858;41.422;2024-03-02T11:19:03;19.33;;;6.95;;
84933;SDS011;75195;56.858;41.422;2024-03-02T11:21:35;6.30;;;3.80;;
84933;SDS011;75195;56.858;41.422;2024-03-02T11:27:04;4.45;;;2.92;;
84933;SDS011;75195;56.858;41.422;2024-03-02T11:34:50;5.85;;;2.95;;
84933;SDS011;75195;56.858;41.422;2024-03-02T11:37:17;14.18;;;7.53;;
84933;SDS011;75195;56.858;41.422;2024-03-02T11:39:46;6.03;;;3.35;;
84933;SDS011;75195;56.858;41.422;2024-03-02T11:42:15;5.85;;;4.20;;
84933;SDS011;75195;56.858;41.422;2024-03-02T11:44:42;7.00;;;4.05;;
84933;SDS011;75195;56.858;41.422;2024-03-02T11:47:11;9.27;;;5.60;;
84933;SDS011;75195;56.858;41.422;2024-03-02T11:49:46;7.55;;;4.22;;
84933;SDS011;75195;56.858;41.422;2024-03-02T11:52:15;8.15;;;5.00;;
84933;SDS011;75195;56.858;41.422;2024-03-02T11:54:44;7.07;;;3.95;;
84933;SDS011;75195;56.858;41.422;2024-03-02T11:57:15;10.02;;;5.57;;
84933;SDS011;75195;56.858;41.422;2024-03-02T11:59:48;16.20;;;9.43;;
84933;SDS011;75195;56.858;41.422;2024-03-02T12:02:18;6.35;;;4.15;;
84933;SDS011;75195;56.858;41.422;2024-03-02T12:04:46;5.50;;;3.10;;
84933;SDS011;75195;56.858;41.422;2024-03-02T12:07:20;22.75;;;9.90;;
84933;SDS011;75195;56.858;41.422;2024-03-02T12:12:14;30.45;;;12.63;;
84933;SDS011;75195;56.858;41.422;2024-03-02T12:14:49;18.73;;;8.70;;
84933;SDS011;75195;56.858;41.422;2024-03-02T12:17:18;5.05;;;2.88;;
84933;SDS011;75195;56.858;41.422;2024-03-02T12:19:44;5.72;;;3.33;;
84933;SDS011;75195;56.858;41.422;2024-03-02T12:22:14;3.28;;;2.30;;
84933;SDS011;75195;56.858;41.422;2024-03-02T12:24:42;4.55;;;2.35;;
84933;SDS011;75195;56.858;41.422;2024-03-02T12:27:12;4.00;;;2.13;;
84933;SDS011;75195;56.858;41.422;2024-03-02T12:29:39;4.82;;;2.65;;
84933;SDS011;75195;56.858;41.422;2024-03-02T12:32:05;5.32;;;2.58;;
84933;SDS011;75195;56.858;41.422;2024-03-02T12:34:32;6.65;;;3.58;;
84933;SDS011;75195;56.858;41.422;2024-03-02T12:36:58;7.80;;;3.95;;
84933;SDS011;75195;56.858;41.422;2024-03-02T12:39:25;7.65;;;3.38;;
84933;SDS011;75195;56.858;41.422;2024-03-02T12:41:53;5.45;;;2.60;;
84933;SDS011;75195;56.858;41.422;2024-03-02T12:44:21;8.07;;;4.25;;
84933;SDS011;75195;56.858;41.422;2024-03-02T12:46:47;5.88;;;4.07;;
84933;SDS011;75195;56.858;41.422;2024-03-02T12:49:14;7.90;;;4.65;;
84933;SDS011;75195;56.858;41.422;2024-03-02T12:51:44;8.38;;;4.40;;
84933;SDS011;75195;56.858;41.422;2024-03-02T12:54:13;6.50;;;3.80;;
84933;SDS011;75195;56.858;41.422;2024-03-02T12:56:41;6.35;;;2.95;;
84933;SDS011;75195;56.858;41.422;2024-03-02T12:59:18;5.03;;;3.72;;
84933;SDS011;75195;56.858;41.422;2024-03-02T13:01:53;6.47;;;4.50;;
84933;SDS011;75195;56.858;41.422;2024-03-02T13:04:24;7.68;;;3.90;;
84933;SDS011;75195;56.858;41.422;2024-03-02T13:06:51;16.65;;;7.45;;
84933;SDS011;75195;56.858;41.422;2024-03-02T13:09:19;16.08;;;7.53;;
84933;SDS011;75195;56.858;41.422;2024-03-02T13:11:46;13.70;;;6.82;;
84933;SDS011;75195;56.858;41.422;2024-03-02T13:14:13;20.77;;;8.55;;
84933;SDS011;75195;56.858;41.422;2024-03-02T13:16:40;13.63;;;7.25;;
84933;SDS011;75195;56.858;41.422;2024-03-02T13:19:15;9.55;;;5.85;;
84933;SDS011;75195;56.858;41.422;2024-03-02T13:21:44;12.52;;;6.85;;
84933;SDS011;75195;56.858;41.422;2024-03-02T13:24:11;41.05;;;17.90;;
84933;SDS011;75195;56.858;41.422;2024-03-02T13:26:38;33.15;;;15.50;;
84933;SDS011;75195;56.858;41.422;2024-03-02T13:29:06;48.78;;;19.90;;
84933;SDS011;75195;56.858;41.422;2024-03-02T13:31:34;127.72;;;42.25;;
84933;SDS011;75195;56.858;41.422;2024-03-02T13:34:00;231.95;;;74.97;;
84933;SDS011;75195;56.858;41.422;2024-03-02T13:36:26;27.80;;;12.60;;
84933;SDS011;75195;56.858;41.422;2024-03-02T13:38:53;27.17;;;11.27;;
84933;SDS011;75195;56.858;41.422;2024-03-02T13:41:19;25.80;;;9.82;;
84933;SDS011;75195;56.858;41.422;2024-03-02T13:43:46;72.88;;;24.20;;
84933;SDS011;75195;56.858;41.422;2024-03-02T13:46:13;43.88;;;21.23;;
84933;SDS011;75195;56.858;41.422;2024-03-02T13:48:39;100.78;;;44.03;;
84933;SDS011;75195;56.858;41.422;2024-03-02T13:51:08;85.30;;;34.70;;
84933;SDS011;75195;56.858;41.422;2024-03-02T13:53:35;152.50;;;62.75;;
84933;SDS011;75195;56.858;41.422;2024-03-02T13:56:02;114.70;;;47.70;;
84933;SDS011;75195;56.858;41.422;2024-03-02T13:58:29;71.50;;;33.67;;
84933;SDS011;75195;56.858;41.422;2024-03-02T14:00:55;29.33;;;16.60;;
84933;SDS011;75195;56.858;41.422;2024-03-02T14:03:23;17.85;;;11.60;;
84933;SDS011;75195;56.858;41.422;2024-03-02T14:05:49;33.55;;;18.35;;
84933;SDS011;75195;56.858;41.422;2024-03-02T14:08:16;16.52;;;8.00;;
84933;SDS011;75195;56.858;41.422;2024-03-02T14:10:43;22.63;;;11.73;;
84933;SDS011;75195;56.858;41.422;2024-03-02T14:13:10;17.48;;;8.75;;
84933;SDS011;75195;56.858;41.422;2024-03-02T14:15:36;12.70;;;7.35;;
84933;SDS011;75195;56.858;41.422;2024-03-02T14:18:05;21.13;;;12.80;;
84933;SDS011;75195;56.858;41.422;2024-03-02T14:20:32;33.03;;;16.42;;
84933;SDS011;75195;56.858;41.422;2024-03-02T14:22:59;16.45;;;8.68;;
84933;SDS011;75195;56.858;41.422;2024-03-02T14:25:25;16.85;;;7.70;;
84933;SDS011;75195;56.858;41.422;2024-03-02T14:27:51;63.50;;;22.40;;
84933;SDS011;75195;56.858;41.422;2024-03-02T14:30:18;55.45;;;21.65;;
84933;SDS011;75195;56.858;41.422;2024-03-02T14:32:44;42.20;;;18.90;;
84933;SDS011;75195;56.858;41.422;2024-03-02T14:35:11;29.55;;;15.40;;
84933;SDS011;75195;56.858;41.422;2024-03-02T14:37:37;20.05;;;10.45;;
84933;SDS011;75195;56.858;41.422;2024-03-02T14:40:04;8.65;;;5.72;;
84933;SDS011;75195;56.858;41.422;2024-03-02T14:42:32;9.43;;;5.05;;
84933;SDS011;75195;56.858;41.422;2024-03-02T14:44:59;48.60;;;24.52;;
84933;SDS011;75195;56.858;41.422;2024-03-02T14:47:26;35.92;;;18.30;;
84933;SDS011;75195;56.858;41.422;2024-03-02T14:49:52;32.95;;;16.23;;
84933;SDS011;75195;56.858;41.422;2024-03-02T14:52:19;23.13;;;11.77;;